Hoffman Estates, Illinois
Current Conditions -  °F | °C
As of 10:52 PM on Monday 20 Oct 2014 (Local Time) from KDPA Reporting Station
Overcast Overcast  
Wind Chill: 52°   Ceiling: 5500
Heat Index: 52°   Visibility: 10mi
Dew Point: 41°   Wind: 9mph
Humidity: 66%   Direction: 10°N
Pressure: 30"   Gusts: NA
Location:  42.06°N, 88.12°W
Report Text: KDPA 210352Z 01008KT 10SM OVC055 11/05 A3000 RMK AO2 SLP158 T01110050
Loading
Personal Weather Stations






























Interactive Weather Map
Tropical Storm Tracking
New forecast layout! Learn more

10-Day Weather Forecast

Advertisements
Track Severe Weather on mobile